Urania — 3FZA2 — position and weather

sailwx.info

Track history (hours):
 
Tides and Currents Weather Stations Pressure Air Temp Water Temp Dewpoint Dewpoint Depression Visibility Wind Speed Wind Dir Waves Ship Positions

Urania

Last reported at 2016-Jul-16 22:31 UTC. Time now 2016-Jul-25 14:01 UTC.
Position N 39°53' E 025°55'.
Warning: this ship's position is 8 days out of date.

Length 87 m; draft 5.5 m.

Type: Ship (hazmat cat A). MMSI: 370859000.

Date/timePositionNaut miles runAvg speedWind from/ knotsBaromVisibWave heightAir tempDewpointWater temp
2016-Jul-16 22:31N 39°53' E 025°55'161 9.0
2016-Jul-16 04:31N 37°37' E 024°03'9 9.6
2016-Jul-16 03:34N 37°37' E 023°52'9 9.0
2016-Jul-16 02:34N 37°41' E 023°41'10 9.6
2016-Jul-16 01:34N 37°50' E 023°37'6 5.4
2016-Jul-16 00:33N 37°55' E 023°34'0 0.0
2016-Jul-15 23:33N 37°55' E 023°34'0 0.1
2016-Jul-15 22:33N 37°55' E 023°34'0 0.0
2016-Jul-15 21:33N 37°55' E 023°34'5 5.3
2016-Jul-15 20:33N 37°51' E 023°38'10 9.5
2016-Jul-15 19:33N 37°43' E 023°44'9 9.5
2016-Jul-15 18:33N 37°33' E 023°44'10 9.9
2016-Jul-15 17:33N 37°23' E 023°43'10 9.7
2016-Jul-15 16:33N 37°14' E 023°38'9 9.1
2016-Jul-15 15:33N 37°07' E 023°31'9 8.9
2016-Jul-15 14:33N 36°60' E 023°25'12 9.1
2016-Jul-15 13:11N 36°48' E 023°20'7 9.2
2016-Jul-15 12:26N 36°41' E 023°18'8 9.1
2016-Jul-15 11:33N 36°33' E 023°16'9 8.9
2016-Jul-15 10:33N 36°25' E 023°13'313 8.2
2016-Jul-13 20:33N 35°55' E 016°47'10 9.1
2016-Jul-13 19:25N 35°54' E 016°34'10 9.4
2016-Jul-13 18:25N 35°53' E 016°23'8 9.4
2016-Jul-13 17:30N 35°52' E 016°12'63 5.7
2016-Jul-13 06:32N 35°46' E 014°55'0 0.0
2016-Jul-13 05:23N 35°46' E 014°55'0 0.0
2016-Jul-13 04:29N 35°46' E 014°55'0 0.0
2016-Jul-13 03:29N 35°46' E 014°55'0 0.0
2016-Jul-13 02:32N 35°46' E 014°55'0 0.0
2016-Jul-13 01:26N 35°46' E 014°55'0 0.0
2016-Jul-13 00:29N 35°46' E 014°55'0 0.0
2016-Jul-12 23:32N 35°46' E 014°55'0 0.0
2016-Jul-12 22:17N 35°46' E 014°55'0 0.0
2016-Jul-12 21:29N 35°46' E 014°55'0 0.0
2016-Jul-12 15:29N 35°46' E 014°55'0 0.0
2016-Jul-12 12:32N 35°46' E 014°55'0 0.1
2016-Jul-12 11:29N 35°46' E 014°55'0 0.1
2016-Jul-12 10:32N 35°46' E 014°55'0 0.0
2016-Jul-12 09:32N 35°46' E 014°55'0 0.0
2016-Jul-12 08:08N 35°46' E 014°55'0 0.0
2016-Jul-12 07:32N 35°46' E 014°55'0 0.3
2016-Jul-12 06:33N 35°46' E 014°55'73 8.9
2016-Jul-11 22:23N 35°51' E 016°25'  
2016-Jul-07 22:06N 31°39' E 032°07'15 8.4
2016-Jul-07 20:22N 31°30' E 032°20'7 7.3
2016-Jul-07 19:23N 31°23' E 032°24'25 8.3
2016-Jul-07 16:22N 30°59' E 032°19'  
Track history (hours):
 
Tides and Currents Weather Stations Pressure Air Temp Water Temp Dewpoint Dewpoint Depression Visibility Wind Speed Wind Dir Waves Ship Positions

Urania

Last reported at 2016-Jul-16 22:31 UTC. Time now 2016-Jul-25 14:01 UTC.
Position N 39°53' E 025°55'.
Warning: this ship's position is 8 days out of date.

Length 87 m; draft 5.5 m.

Type: Ship (hazmat cat A). MMSI: 370859000.

Date/timePositionNaut miles runAvg speedWind from/ knotsBaromVisibWave heightAir tempDewpointWater temp
2016-Jul-16 22:31N 39°53' E 025°55'161 9.0
2016-Jul-16 04:31N 37°37' E 024°03'9 9.6
2016-Jul-16 03:34N 37°37' E 023°52'9 9.0
2016-Jul-16 02:34N 37°41' E 023°41'10 9.6
2016-Jul-16 01:34N 37°50' E 023°37'6 5.4
2016-Jul-16 00:33N 37°55' E 023°34'0 0.0
2016-Jul-15 23:33N 37°55' E 023°34'0 0.1
2016-Jul-15 22:33N 37°55' E 023°34'0 0.0
2016-Jul-15 21:33N 37°55' E 023°34'5 5.3
2016-Jul-15 20:33N 37°51' E 023°38'10 9.5
2016-Jul-15 19:33N 37°43' E 023°44'9 9.5
2016-Jul-15 18:33N 37°33' E 023°44'10 9.9
2016-Jul-15 17:33N 37°23' E 023°43'10 9.7
2016-Jul-15 16:33N 37°14' E 023°38'9 9.1
2016-Jul-15 15:33N 37°07' E 023°31'9 8.9
2016-Jul-15 14:33N 36°60' E 023°25'12 9.1
2016-Jul-15 13:11N 36°48' E 023°20'7 9.2
2016-Jul-15 12:26N 36°41' E 023°18'8 9.1
2016-Jul-15 11:33N 36°33' E 023°16'9 8.9
2016-Jul-15 10:33N 36°25' E 023°13'313 8.2
2016-Jul-13 20:33N 35°55' E 016°47'10 9.1
2016-Jul-13 19:25N 35°54' E 016°34'10 9.4
2016-Jul-13 18:25N 35°53' E 016°23'8 9.4
2016-Jul-13 17:30N 35°52' E 016°12'63 5.7
2016-Jul-13 06:32N 35°46' E 014°55'0 0.0
2016-Jul-13 05:23N 35°46' E 014°55'0 0.0
2016-Jul-13 04:29N 35°46' E 014°55'0 0.0
2016-Jul-13 03:29N 35°46' E 014°55'0 0.0
2016-Jul-13 02:32N 35°46' E 014°55'0 0.0
2016-Jul-13 01:26N 35°46' E 014°55'0 0.0
2016-Jul-13 00:29N 35°46' E 014°55'0 0.0
2016-Jul-12 23:32N 35°46' E 014°55'0 0.0
2016-Jul-12 22:17N 35°46' E 014°55'0 0.0
2016-Jul-12 21:29N 35°46' E 014°55'0 0.0
2016-Jul-12 15:29N 35°46' E 014°55'0 0.0
2016-Jul-12 12:32N 35°46' E 014°55'0 0.1
2016-Jul-12 11:29N 35°46' E 014°55'0 0.1
2016-Jul-12 10:32N 35°46' E 014°55'0 0.0
2016-Jul-12 09:32N 35°46' E 014°55'0 0.0
2016-Jul-12 08:08N 35°46' E 014°55'0 0.0
2016-Jul-12 07:32N 35°46' E 014°55'0 0.3
2016-Jul-12 06:33N 35°46' E 014°55'73 8.9
2016-Jul-11 22:23N 35°51' E 016°25'  
2016-Jul-07 22:06N 31°39' E 032°07'15 8.4
2016-Jul-07 20:22N 31°30' E 032°20'7 7.3
2016-Jul-07 19:23N 31°23' E 032°24'25 8.3
2016-Jul-07 16:22N 30°59' E 032°19'  

Dump ship's entire track history